Date,TemperatureHighF,TemperatureAvgF,TemperatureLowF,DewpointHighF,DewpointAvgF,DewpointLowF,HumidityHigh,HumidityAvg,HumidityLow,PressureMaxIn,PressureMinIn,WindSpeedMaxMPH,WindSpeedAvgMPH,GustSpeedMaxMPH,PrecipitationSumIn
2013-1-1,31,22,5,27,16,2,88,77,71,29.98,29.77,12,3,13,0.01
2013-1-2,7,5,-1,5,1,-6,90,86,78,30.23,29.97,1,0,3,0.00
2013-1-3,21,7,-8,17,1,-12,86,76,62,30.25,30.03,4,0,6,0.00
2013-1-4,35,29,21,24,21,17,89,74,61,30.03,29.87,15,3,18,0.01
2013-1-5,35,28,20,26,21,16,87,75,54,30.26,29.92,14,3,14,0.01
2013-1-6,38,30,20,30,26,17,92,82,66,30.18,29.93,7,1,9,0.01
2013-1-7,33,25,14,31,21,11,93,85,72,30.39,30.00,9,1,9,0.01
2013-1-8,42,30,23,27,23,19,90,76,53,30.39,30.27,10,1,10,0.11
2013-1-9,42,33,18,32,26,16,93,76,53,30.38,30.01,19,2,20,0.08
2013-1-10,40,40,39,29,29,28,65,65,65,30.15,30.14,16,10,20,0.09
2013-1-11,40,39,38,38,38,37,95,94,92,30.16,30.09,15,3,15,0.19
2013-1-12,50,43,39,45,41,38,97,93,80,30.16,30.08,7,1,9,0.19
2013-1-13,50,44,35,49,43,34,98,96,91,30.13,29.92,13,1,15,0.01
2013-1-14,48,40,30,48,35,25,97,85,63,30.31,29.82,18,2,18,0.03
2013-1-15,32,28,24,26,23,21,93,81,70,30.36,30.23,7,0,7,0.00
2013-1-16,31,28,26,29,26,22,97,92,80,30.24,29.82,3,0,3,0.00
2013-1-17,33,27,19,29,22,9,96,80,65,30.16,29.86,14,2,14,0.06
2013-1-18,22,14,4,10,4,-1,87,65,49,30.43,30.08,14,2,14,0.06
2013-1-19,41,32,22,27,19,10,67,59,51,30.28,29.80,14,4,15,0.07
2013-1-20,40,39,37,28,27,27,68,62,58,29.80,29.58,12,4,14,0.11
2013-1-21,20,19,15,17,16,13,91,87,81,29.89,29.80,7,1,8,0.00
2013-1-22,18,12,5,16,4,-4,92,71,48,30.11,29.79,17,3,17,0.00
2013-1-23,7,2,-6,0,-6,-10,85,69,54,30.21,30.10,14,2,15,0.00
2013-1-24,12,1,-11,-1,-7,-15,85,70,48,30.42,30.18,14,2,16,0.00
2013-1-25,14,8,1,8,-1,-7,86,67,45,30.43,30.09,10,1,10,0.00
2013-1-26,17,8,0,6,2,-4,91,78,60,30.36,30.08,7,1,8,0.00
2013-1-27,24,10,1,7,2,-3,89,70,39,30.55,30.36,8,1,9,0.01
2013-1-28,31,23,7,30,19,2,95,83,53,30.51,29.98,9,1,18,0.01
2013-1-29,40,34,30,38,33,29,97,95,88,30.15,29.99,15,1,18,0.37
2013-1-30,57,51,39,55,49,37,97,95,92,30.02,29.31,24,5,24,0.18
2013-1-31,54,36,21,53,32,18,98,84,61,29.61,28.88,22,5,23,0.01
2013-2-1,25,20,14,18,12,8,90,72,56,30.16,29.61,14,4,16,0.01
2013-2-2,25,16,5,15,9,2,89,73,51,30.23,30.04,9,1,11,0.00
2013-2-3,27,18,9,15,12,6,91,79,58,30.06,29.78,6,0,8,0.01
2013-2-4,23,17,10,16,12,6,91,78,58,29.97,29.78,18,2,18,0.01
2013-2-5,27,19,12,21,12,9,90,73,55,30.03,29.91,6,0,9,0.00
2013-2-6,30,24,16,24,16,5,91,74,47,30.36,29.90,15,2,16,0.00
2013-2-7,24,18,8,12,7,3,87,64,46,30.55,30.36,6,1,7,0.00
2013-2-8,30,26,20,24,19,9,92,76,52,30.40,29.79,15,2,16,0.00
2013-2-9,22,14,3,18,7,-4,92,76,57,30.38,29.82,15,3,17,0.03
2013-2-10,30,12,-6,10,1,-10,84,63,28,30.54,30.30,7,0,7,0.02
2013-2-11,46,36,28,41,28,0,96,77,25,30.30,29.66,21,3,21,0.17
2013-2-12,33,33,33,30,30,29,89,86,84,29.70,29.69,8,2,8,0.17
2013-2-13,37,30,27,25,23,21,87,76,53,29.90,29.73,11,1,11,0.00
2013-2-14,37,29,17,26,21,14,89,74,59,29.96,29.72,8,1,10,0.00
2013-2-15,45,37,29,30,27,24,91,69,54,30.01,29.89,11,2,12,0.00
2013-2-16,30,26,19,27,18,5,93,72,54,30.00,29.83,12,1,12,0.04
2013-2-17,23,15,8,8,4,-1,72,61,40,29.93,29.64,18,4,24,0.04
2013-2-18,23,13,4,8,1,-3,75,61,39,30.22,29.93,14,3,15,0.00
2013-2-19,42,32,14,33,23,7,96,69,48,30.19,29.63,14,2,17,0.19
2013-2-20,30,24,21,28,16,11,95,75,55,29.90,29.66,17,4,24,0.19
2013-2-21,21,17,14,16,11,7,88,76,67,30.40,29.87,16,4,17,0.00
2013-2-22,36,26,16,25,20,13,92,79,63,30.45,30.25,8,1,8,0.05
2013-2-23,31,31,31,25,24,24,77,75,74,30.25,30.23,6,2,7,0.05
2013-2-24,28,28,28,27,27,26,96,95,93,29.97,29.91,5,1,6,0.04
2013-2-25,28,28,26,26,26,25,93,93,92,30.00,29.97,1,0,2,0.04
2013-2-26,41,33,22,30,26,21,94,77,56,30.31,30.03,9,1,9,0.12
2013-2-27,41,36,31,36,32,24,94,86,67,30.03,29.51,24,5,24,0.33
2013-2-28,40,35,32,36,33,31,97,93,80,29.61,29.55,4,0,5,0.01
2013-3-1,32,32,32,32,31,31,96,96,96,29.61,29.60,2,0,2,0.01
2013-3-2,31,27,23,27,24,21,95,89,79,29.77,29.71,7,1,7,0.01
2013-3-3,26,22,19,23,19,16,94,89,83,29.77,29.70,10,2,10,0.01
2013-3-4,27,24,21,21,20,18,90,85,76,29.92,29.76,15,4,15,0.00
2013-3-5,37,28,23,28,23,20,92,81,68,30.09,29.92,8,1,8,0.08
2013-3-6,38,32,22,30,27,20,95,80,70,30.12,30.03,15,2,15,0.03
2013-3-7,34,30,26,28,25,22,95,84,72,30.15,30.08,12,2,14,0.02
2013-3-8,35,28,25,30,26,23,95,90,79,30.30,30.08,13,2,14,0.03
2013-3-9,27,26,26,23,23,22,86,86,85,30.30,30.29,3,1,5,0.03
2013-3-10,56,46,23,31,23,17,87,43,24,30.35,30.20,10,2,12,0.00
2013-3-11,48,43,37,40,30,24,84,62,49,30.24,29.98,18,3,18,0.00
2013-3-12,50,45,35,48,43,32,96,92,83,30.00,29.66,17,3,18,0.67
2013-3-13,41,34,28,32,27,21,95,75,46,29.85,29.78,14,2,14,0.67
2013-3-14,30,23,19,24,14,8,79,69,58,29.91,29.81,19,4,19,0.00
2013-3-15,22,22,20,15,13,11,73,68,65,29.94,29.90,16,4,16,0.00
2013-3-16,31,25,16,23,16,12,89,69,49,29.92,29.79,8,1,9,0.01
2013-3-17,32,24,16,16,9,-100,80,57,34,30.33,29.91,15,-6,15,0.01
2013-3-18,36,24,9,24,8,1,91,55,24,30.44,30.10,12,1,12,0.00
2013-3-19,35,30,24,31,27,22,95,88,77,30.09,29.70,9,1,10,0.01
2013-3-20,32,25,17,24,20,14,92,82,64,29.83,29.76,11,2,14,0.02
2013-3-21,34,22,7,17,12,4,92,69,43,29.83,29.67,10,1,10,0.17
2013-3-22,31,23,11,24,18,7,90,80,66,29.84,29.69,12,2,14,0.02
2013-3-23,35,30,26,24,22,20,91,74,58,29.89,29.78,18,4,18,0.02
2013-3-24,41,32,27,24,23,22,84,69,50,29.90,29.77,10,2,10,0.14
2013-3-25,40,34,27,27,24,22,84,67,51,29.78,29.53,9,1,11,0.02
2013-3-26,43,34,26,29,25,20,88,70,40,29.85,29.60,13,1,13,0.02
2013-3-27,45,34,23,33,27,20,90,75,56,29.95,29.84,13,2,13,0.00
2013-3-28,43,37,32,35,32,29,95,83,69,30.10,29.94,7,1,8,0.02
2013-3-29,46,37,28,35,31,26,95,79,58,30.13,30.05,11,1,11,0.01
2013-3-30,36,35,31,30,29,27,85,80,78,30.11,30.10,1,0,2,0.00
2013-3-31,53,41,27,38,28,22,93,63,35,30.12,29.71,16,2,16,0.13
2013-4-1,52,37,27,43,31,15,97,79,47,29.85,29.55,22,2,22,0.11
2013-4-2,32,27,21,22,18,13,91,72,52,30.02,29.84,17,4,17,0.04
2013-4-3,37,28,22,22,18,14,85,65,41,30.28,29.99,21,5,21,0.04
2013-4-4,51,36,22,24,21,18,88,58,29,30.35,29.98,13,2,13,0.00
2013-4-5,50,41,32,29,24,18,86,53,35,29.99,29.75,14,3,16,0.00
2013-4-6,44,33,24,28,12,6,86,45,21,30.30,29.96,11,2,15,0.00
2013-4-7,56,45,32,40,27,11,76,50,31,30.27,29.87,21,4,21,0.02
2013-4-8,59,48,39,40,36,34,87,65,41,30.11,29.93,10,2,11,0.00
2013-4-9,58,52,47,49,44,38,87,75,49,30.02,29.83,15,3,15,0.08
2013-4-10,56,48,44,51,46,41,97,93,79,30.00,29.82,6,1,8,0.30
2013-4-11,44,37,31,43,32,26,97,85,67,30.12,29.86,9,1,10,0.31
2013-4-12,38,35,32,35,33,30,96,92,88,30.12,29.77,8,1,10,0.18
2013-4-13,46,40,34,39,36,33,97,87,71,29.95,29.80,12,1,12,0.01
2013-4-14,43,38,29,35,31,25,95,77,53,30.25,29.93,14,2,15,0.03
2013-4-15,60,45,28,37,31,25,91,61,39,30.37,30.23,8,1,15,0.00
2013-4-16,58,52,45,53,44,29,95,76,53,30.30,30.02,23,4,23,0.39
2013-4-17,60,48,38,44,36,30,93,66,33,30.31,30.13,10,2,10,0.40
2013-4-18,63,50,36,50,36,29,90,59,35,30.33,30.00,16,3,18,0.00
2013-4-19,68,60,43,61,56,42,95,86,75,30.00,29.52,17,4,19,0.98
2013-4-20,50,41,31,42,33,22,96,74,46,30.31,29.68,17,3,17,1.23
2013-4-21,47,36,26,24,20,16,76,56,30,30.66,30.31,14,2,14,0.00
2013-4-22,56,44,33,29,22,16,69,43,26,30.71,30.49,11,3,11,0.00
2013-4-23,51,41,29,39,33,24,89,73,59,30.50,30.14,9,1,10,0.00
2013-4-24,72,54,32,51,42,31,96,68,36,30.15,29.71,16,2,16,0.00
2013-4-25,60,44,36,52,33,28,92,68,39,30.27,29.73,13,3,14,0.15
2013-4-26,56,43,32,39,32,27,88,68,34,30.45,30.26,8,1,12,0.00
2013-4-27,61,46,30,37,30,16,93,60,20,30.45,30.29,10,1,10,0.00
2013-4-28,71,55,35,43,37,32,90,55,27,30.31,30.12,8,1,9,0.00
2013-4-29,59,54,46,45,39,31,87,57,45,30.21,30.15,13,2,13,0.07
2013-4-30,70,56,44,46,41,32,92,61,33,30.29,30.20,9,1,10,0.08
2013-5-1,74,60,41,41,35,28,71,42,24,30.43,30.28,8,1,8,0.00
2013-5-2,78,63,45,46,41,35,85,49,25,30.43,30.26,12,2,14,0.00
2013-5-3,70,59,47,43,34,27,64,42,21,30.44,30.30,8,2,9,0.00
2013-5-4,74,59,41,49,40,29,92,53,24,30.33,30.17,9,1,10,0.00
2013-5-5,73,57,38,42,35,28,80,46,22,30.26,30.14,8,1,9,0.00
2013-5-6,74,58,41,50,40,31,94,58,22,30.22,30.08,8,1,9,0.00
2013-5-7,79,64,51,55,51,47,91,64,38,30.14,30.02,8,1,9,0.00
2013-5-8,71,62,55,59,56,52,94,81,59,30.11,29.97,8,1,9,0.22
2013-5-9,68,58,50,59,53,48,96,84,58,29.98,29.85,5,1,7,0.05
2013-5-10,75,62,47,58,53,46,98,73,45,29.97,29.82,8,1,9,0.05
2013-5-11,66,60,52,63,57,51,96,91,67,29.82,29.63,13,2,13,0.16
2013-5-12,56,50,40,51,41,29,96,74,38,29.85,29.64,11,1,11,0.17
2013-5-13,46,41,33,33,30,26,89,66,51,30.09,29.85,12,2,12,0.00
2013-5-14,37,37,36,33,32,31,87,83,80,30.09,30.07,0,0,1,0.00
2013-5-15,60,49,32,53,40,29,91,74,37,30.06,29.62,17,2,19,0.09
2013-5-16,75,62,44,50,41,33,89,51,26,29.84,29.69,15,2,16,0.09
2013-5-17,66,54,44,44,41,37,88,63,35,30.21,29.84,10,1,10,0.00
2013-5-18,70,58,42,48,43,38,91,62,33,30.29,30.21,8,1,15,0.00
2013-5-19,58,55,51,54,52,48,93,89,81,30.28,30.13,8,1,11,0.04
2013-5-20,78,64,54,66,59,52,97,86,62,30.14,29.93,7,1,10,0.04
2013-5-21,84,71,61,69,64,59,97,79,55,29.95,29.75,13,1,18,1.10
2013-5-22,78,68,61,71,65,60,98,91,74,29.87,29.76,15,1,15,0.40
2013-5-23,73,67,64,68,64,60,95,89,77,29.80,29.69,9,2,9,0.18
2013-5-24,64,50,40,63,49,40,98,96,94,29.97,29.61,10,1,12,0.55
2013-5-25,41,40,39,40,39,38,97,97,96,29.96,29.88,13,3,17,0.50
2013-5-26,49,44,38,46,42,37,97,92,74,30.14,29.86,16,1,16,0.10
2013-5-27,68,51,37,46,40,-100,98,70,37,30.21,30.12,9,-7,9,0.10
2013-5-28,70,56,39,53,46,37,95,72,38,30.21,30.11,7,1,7,0.00
2013-5-29,78,64,56,69,61,53,97,90,70,30.11,29.91,10,1,21,1.46
2013-5-30,83,70,60,71,65,59,99,85,57,30.10,30.03,10,1,10,0.01
2013-5-31,89,76,61,70,65,60,99,73,46,30.09,29.92,7,1,7,0.01
2013-6-1,88,77,66,76,66,61,93,71,50,29.95,29.81,10,1,10,0.43
2013-6-2,85,73,65,72,68,64,97,85,62,29.82,29.65,12,1,12,1.03
2013-6-3,65,60,50,64,54,39,98,80,54,29.91,29.76,9,1,14,1.05
2013-6-4,69,55,44,52,45,40,89,70,46,30.13,29.91,10,1,13,0.00
2013-6-5,70,57,44,53,46,42,97,70,38,30.20,30.10,7,0,9,0.00
2013-6-6,70,61,52,54,50,46,95,70,44,30.14,30.01,8,1,10,0.24
2013-6-7,57,53,53,56,50,-100,97,93,93,30.01,29.78,5,-21,7,0.20
2013-6-8,64,57,51,61,55,50,98,95,87,30.05,29.70,7,0,7,0.04
2013-6-9,74,62,54,60,56,53,97,82,55,30.18,30.05,8,1,8,0.05
2013-6-10,66,59,52,62,57,51,98,94,78,30.18,29.85,8,0,8,0.18
2013-6-11,69,60,57,65,59,55,98,95,84,29.85,29.55,10,1,10,0.21
2013-6-12,68,59,53,57,54,51,95,84,60,29.85,29.63,15,1,15,0.08
2013-6-13,57,53,49,55,52,48,97,95,87,29.82,29.65,7,0,7,0.07
2013-6-14,73,59,49,61,54,47,98,84,41,29.87,29.68,13,1,13,0.07
2013-6-15,74,60,48,55,50,46,98,72,41,29.98,29.87,14,1,14,0.04
2013-6-16,70,60,49,61,54,44,94,80,60,29.96,29.70,10,1,10,0.01
2013-6-17,78,64,56,66,60,55,98,89,58,29.91,29.79,10,0,10,0.01
2013-6-18,66,58,51,61,55,50,99,92,73,29.95,29.87,8,0,8,0.03
2013-6-19,69,57,48,50,47,42,98,72,40,30.17,29.94,10,1,10,0.02
2013-6-20,48,47,46,45,45,44,93,91,90,30.18,30.16,0,0,0,0.00
2013-6-21,79,68,57,60,55,46,92,66,35,30.26,30.19,7,1,7,0.01
2013-6-22,82,72,63,66,62,58,90,72,55,30.19,30.06,10,1,10,0.02
2013-6-23,88,77,69,73,68,64,86,74,59,30.10,29.95,13,1,13,0.00
2013-6-24,88,73,64,74,68,64,97,86,61,30.00,29.89,8,0,8,0.01
2013-6-25,86,71,61,74,67,60,99,88,61,29.95,29.74,9,1,9,0.01
2013-6-26,78,70,65,70,67,64,98,92,72,29.81,29.73,6,0,6,0.01
2013-6-27,80,72,62,72,68,61,99,88,68,29.80,29.58,7,0,7,0.01
2013-6-28,79,70,65,71,67,64,98,90,69,29.58,29.36,13,2,13,0.01
2013-6-29,80,70,63,69,65,62,98,86,63,29.67,29.45,12,1,13,0.01
2013-6-30,83,70,62,72,66,61,98,88,64,29.89,29.66,8,0,8,0.58
2013-7-1,67,67,66,66,66,66,98,97,97,29.91,29.89,3,0,3,0.58
2013-7-2,83,74,70,74,71,68,97,89,71,30.10,29.99,9,1,9,0.65
2013-7-3,84,76,70,75,71,69,96,86,69,30.17,30.09,8,1,8,0.00
2013-7-4,87,78,69,76,72,68,97,82,60,30.18,30.06,10,1,10,0.00
2013-7-5,89,79,71,77,73,70,96,82,63,30.14,30.00,10,1,10,0.00
2013-7-6,84,75,67,72,69,66,97,84,59,30.08,30.00,8,1,8,0.00
2013-7-7,88,74,65,78,70,64,98,90,61,30.04,29.89,6,0,6,0.40
2013-7-8,82,73,69,71,69,67,98,89,63,30.01,29.90,10,0,10,0.01
2013-7-9,84,74,67,73,69,66,98,85,59,30.05,29.95,6,0,6,0.06
2013-7-10,81,74,70,75,70,68,97,89,76,29.97,29.75,11,1,11,1.50
2013-7-11,80,72,64,71,65,58,98,81,56,29.95,29.74,7,1,7,1.50
2013-7-12,81,70,59,68,62,57,94,77,52,30.15,29.95,6,0,6,0.00
2013-7-13,76,70,63,72,65,56,97,85,69,30.28,30.15,5,0,5,0.06
2013-7-14,86,76,68,75,71,67,98,86,63,30.30,30.19,6,0,6,0.00
2013-7-15,88,77,67,75,70,67,99,82,60,30.22,30.11,7,0,7,0.00
2013-7-16,87,75,63,73,68,62,98,81,57,30.20,30.13,8,0,8,0.00
2013-7-17,91,78,66,75,70,65,98,80,51,30.19,30.00,6,0,6,0.00
2013-7-18,91,80,71,76,73,70,98,81,55,30.02,29.91,9,0,9,0.00
2013-7-19,73,73,72,71,70,70,94,93,92,29.92,29.91,0,0,0,0.00
2013-7-20,83,72,63,72,67,61,98,84,64,29.83,29.68,8,1,8,0.06
2013-7-21,80,69,59,67,63,58,98,83,57,29.97,29.83,7,0,7,0.00
2013-7-22,83,72,61,71,66,59,96,82,58,29.98,29.79,6,0,6,0.04
2013-7-23,79,71,66,72,68,65,98,92,73,29.79,29.54,8,0,8,0.01
2013-7-24,73,66,55,66,60,49,98,81,60,29.99,29.59,11,1,11,0.01
2013-7-25,70,59,47,60,53,46,95,80,65,30.09,29.98,8,1,8,0.00
2013-7-26,74,63,56,61,57,54,96,83,57,30.06,29.99,9,1,9,0.00
2013-7-27,80,67,53,65,59,52,98,79,51,30.04,29.93,8,1,8,0.00
2013-7-28,73,68,65,68,64,58,94,87,74,29.96,29.90,8,1,8,0.02
2013-7-29,78,69,60,65,62,55,97,80,56,30.08,29.93,6,1,6,0.02
2013-7-30,75,63,54,61,57,53,98,82,58,30.14,30.06,7,1,7,0.00
2013-7-31,78,65,52,63,58,51,98,80,50,30.15,30.01,6,0,6,0.00
2013-8-1,74,66,61,66,62,58,96,88,73,30.02,29.81,10,1,10,0.04
2013-8-2,78,68,60,65,61,58,98,82,54,29.86,29.79,11,1,11,0.04
2013-8-3,76,66,57,62,57,49,96,73,46,29.87,29.78,13,1,13,0.00
2013-8-4,72,62,52,64,55,50,97,80,57,29.95,29.81,8,1,8,0.01
2013-8-5,73,60,50,54,50,46,96,73,42,30.04,29.94,9,1,9,0.00
2013-8-6,78,62,48,60,53,47,97,75,43,30.11,30.04,7,0,7,0.00
2013-8-7,75,68,62,63,60,56,88,78,60,30.12,30.00,13,1,13,0.00
2013-8-8,82,73,67,72,68,63,94,85,67,30.01,29.93,15,2,15,0.00
2013-8-9,75,71,68,73,70,66,98,95,89,29.94,29.75,9,1,9,0.03
2013-8-10,74,66,54,66,58,50,97,77,48,30.04,29.83,12,1,12,0.03
2013-8-11,75,61,48,59,54,47,98,80,52,30.11,30.01,6,0,6,0.00
2013-8-12,76,64,53,65,58,52,98,82,54,30.04,29.90,6,0,6,0.00
2013-8-13,73,66,59,68,63,57,97,90,79,29.90,29.65,10,0,10,0.45
2013-8-14,67,58,51,58,54,50,97,86,70,30.00,29.74,12,1,12,0.45
2013-8-15,71,58,48,57,52,47,98,83,55,30.13,30.00,7,1,7,0.00
2013-8-16,75,61,49,60,54,49,98,81,47,30.20,30.12,7,0,7,0.00
2013-8-17,78,62,50,62,56,50,98,82,46,30.29,30.20,7,0,7,0.00
2013-8-18,73,63,55,64,59,53,97,88,65,30.26,30.10,3,0,3,0.00
2013-8-19,78,65,57,65,60,56,98,85,55,30.10,29.99,8,0,8,0.00
2013-8-20,80,66,53,66,60,52,98,82,51,30.12,30.02,8,0,8,0.00
2013-8-21,83,69,57,70,63,56,98,83,54,30.16,30.01,7,0,7,0.00
2013-8-22,84,72,61,72,65,60,97,82,55,30.03,29.80,8,0,8,0.20
2013-8-23,73,64,52,66,58,50,98,81,47,30.15,29.87,11,1,11,0.21
2013-8-24,75,59,47,57,52,46,98,78,50,30.34,30.15,8,0,8,0.00
2013-8-25,78,63,48,64,55,47,98,78,48,30.38,30.17,7,0,7,0.00
2013-8-26,76,66,61,68,63,57,97,89,73,30.17,29.88,9,0,9,0.27
2013-8-27,80,69,64,71,67,63,98,93,73,29.91,29.83,5,0,5,0.34
2013-8-28,64,64,63,63,63,62,98,97,97,29.89,29.87,0,0,0,0.00
2013-8-29,78,68,59,69,63,58,98,87,70,30.01,29.89,6,0,6,0.00
2013-8-30,82,70,64,71,66,62,97,86,64,29.99,29.79,7,0,7,0.00
2013-8-31,78,71,67,73,69,66,98,93,82,29.80,29.72,8,0,8,1.05
2013-9-1,81,71,65,74,69,65,99,94,78,29.84,29.78,8,0,8,0.93
2013-9-2,78,71,64,73,69,63,98,94,77,29.79,29.64,12,0,12,0.44
2013-9-3,70,64,59,63,60,56,98,90,68,29.85,29.71,7,0,7,0.44
2013-9-4,75,63,56,60,57,54,97,82,52,29.94,29.85,10,1,10,0.00
2013-9-5,66,59,48,59,50,42,96,76,45,30.16,29.87,13,1,13,0.00
2013-9-6,66,51,39,50,43,38,98,77,39,30.27,30.12,7,0,7,0.00
2013-9-7,72,57,46,60,52,44,97,83,51,30.13,29.86,8,0,8,0.02
2013-9-8,65,58,45,59,52,42,97,82,46,30.12,29.79,12,1,12,0.02
2013-9-9,68,54,39,54,46,38,98,77,53,30.23,30.09,11,1,11,0.00
2013-9-10,78,68,59,72,65,54,97,91,80,30.14,29.98,10,2,10,1.10
2013-9-11,90,77,66,79,72,65,97,86,63,30.06,29.91,10,1,10,0.16
2013-9-12,81,69,65,74,67,64,98,94,79,29.91,29.64,9,0,9,1.26
2013-9-13,65,59,50,64,58,50,98,97,89,29.84,29.61,9,1,9,0.21
2013-9-14,58,51,45,53,49,44,98,92,79,30.11,29.84,7,0,7,0.24
2013-9-15,66,52,40,56,48,39,98,87,63,30.19,30.06,8,0,8,0.00
2013-9-16,60,52,42,54,49,37,97,89,77,30.29,30.03,9,1,9,0.05
2013-9-17,60,46,34,48,41,34,98,84,57,30.47,30.29,9,0,9,0.00
2013-9-18,69,52,40,54,46,39,98,82,47,30.35,30.16,5,0,5,0.00
2013-9-19,74,56,43,57,50,42,98,82,47,30.17,30.06,7,0,7,0.00
2013-9-20,78,61,48,64,55,47,98,81,53,30.08,29.95,8,0,8,0.00
2013-9-21,70,63,58,62,58,54,95,84,67,29.97,29.57,17,2,17,0.14
2013-9-22,63,54,46,62,50,41,97,86,67,29.90,29.57,11,1,11,0.76
2013-9-23,58,47,38,47,41,37,97,81,59,30.07,29.90,11,1,11,0.00
2013-9-24,45,38,35,42,37,34,97,94,85,30.07,30.01,3,0,3,0.00
2013-10-7,53,52,50,52,51,49,97,97,96,29.94,29.87,6,0,6,0.07
2013-10-8,61,51,41,49,44,40,96,79,50,30.37,29.93,11,1,11,0.00
2013-10-9,65,48,36,46,40,34,98,76,33,30.47,30.35,8,0,8,0.00
2013-10-10,58,48,38,50,44,37,98,85,67,30.35,30.18,7,0,7,0.00
2013-10-11,69,55,45,53,46,26,91,76,27,30.18,30.09,7,0,7,0.00
2013-10-12,70,53,43,54,47,40,98,82,55,30.35,30.15,12,1,12,0.00
2013-10-13,69,55,46,52,48,45,97,79,47,30.40,30.31,10,1,10,0.00
2013-10-14,65,54,44,54,50,43,96,85,64,30.34,30.23,7,0,7,0.00
2013-10-15,65,58,54,59,55,52,97,89,73,30.25,30.10,8,0,8,0.00
2013-10-16,63,57,50,55,52,48,95,83,73,30.10,29.84,13,1,13,0.00
2013-10-17,66,59,54,58,53,49,97,82,56,29.88,29.59,10,1,13,0.09
2013-10-18,61,53,41,60,47,39,97,82,45,29.94,29.56,14,2,14,0.18
2013-10-19,63,50,40,48,42,38,96,76,48,29.95,29.69,11,1,11,0.02
2013-10-20,56,48,40,49,39,34,90,74,46,30.03,29.68,15,1,15,0.04
2013-10-21,64,51,39,44,40,36,92,67,41,30.10,29.90,13,1,13,0.00
2013-10-22,51,47,34,48,42,32,94,83,67,29.90,29.74,16,1,16,0.07
2013-10-23,50,40,31,37,34,29,96,79,56,29.81,29.63,9,0,9,0.01
2013-10-24,46,39,30,36,32,28,96,77,51,29.93,29.71,14,2,14,0.02
2013-10-25,44,38,34,35,32,29,94,81,58,30.17,29.92,14,1,14,0.00
2013-10-26,47,41,35,35,32,29,90,71,51,30.16,29.83,13,1,13,0.00
2013-10-27,47,42,32,36,33,30,93,73,57,30.08,29.79,15,1,15,0.00
2013-10-28,53,39,28,38,31,24,96,74,47,30.36,30.07,18,1,18,0.00
2013-10-29,43,32,24,27,24,21,91,73,44,30.45,30.36,9,0,9,0.00
2013-10-30,49,38,31,39,33,25,95,82,64,30.36,30.22,8,0,8,0.02
2013-10-31,59,50,34,58,49,32,97,95,90,30.24,29.67,20,3,20,0.66
2013-11-1,64,59,48,61,54,42,95,83,60,29.68,29.39,27,4,27,0.24
2013-11-2,59,46,37,49,42,34,97,87,56,29.82,29.61,12,0,12,0.12
2013-11-3,38,33,24,34,23,14,91,69,50,30.47,29.81,17,2,17,0.00
2013-11-4,38,29,21,22,19,17,88,68,46,30.68,30.47,9,1,9,0.00
2013-11-5,50,40,31,38,30,17,79,66,53,30.68,30.46,14,1,14,0.00
2013-11-6,56,49,43,48,41,-100,89,79,66,30.46,29.94,21,-8,21,0.00
2013-11-7,54,46,36,51,43,33,96,88,77,29.94,29.77,17,2,17,0.54
2013-11-8,42,35,31,34,30,23,95,83,59,30.15,29.85,22,2,22,0.00
2013-11-9,40,34,26,31,27,23,89,75,62,30.25,29.93,13,1,13,0.00
2013-11-10,46,41,36,39,34,29,89,76,65,29.98,29.76,18,2,18,0.04
2013-11-11,44,40,34,33,30,27,77,67,55,30.15,29.91,16,2,16,0.00
2013-11-12,42,28,21,34,22,15,92,76,62,30.27,29.92,14,2,14,0.00
2013-11-13,32,25,18,20,16,11,84,69,41,30.36,30.17,12,1,12,0.00
2013-11-14,46,35,25,26,21,16,75,56,41,30.17,30.10,12,1,12,0.01
2013-11-15,56,42,29,26,20,15,66,43,21,30.20,30.11,9,0,9,0.00
2013-11-16,58,46,39,39,31,24,78,57,39,30.30,30.18,7,0,7,0.00
2013-11-17,58,53,46,55,49,38,93,88,73,30.24,29.67,18,3,18,0.01
2013-11-18,60,52,37,57,42,30,95,70,42,29.73,29.46,27,4,27,0.34
2013-11-19,37,32,24,30,23,17,81,67,56,30.37,29.72,19,3,19,0.00
2013-11-20,33,25,19,20,17,15,85,73,55,30.65,30.37,10,1,10,0.00
2013-11-21,44,32,19,33,24,15,90,73,46,30.65,30.38,13,1,13,0.00
2013-11-22,45,42,39,44,40,33,97,93,77,30.38,29.88,18,1,18,0.08
2013-11-23,42,30,19,39,25,16,93,81,53,30.01,29.84,18,3,18,0.00
2013-11-24,23,16,10,16,6,2,88,65,42,30.31,29.90,24,3,24,0.00
2013-11-25,29,20,6,16,10,2,85,66,57,30.45,30.24,16,1,16,0.01
2013-11-26,39,30,24,38,26,14,97,87,57,30.31,29.92,9,1,9,0.25
2013-11-27,51,37,28,49,36,26,97,96,87,29.92,29.39,22,2,22,0.75
2013-11-28,28,21,14,27,15,11,96,79,63,30.45,29.61,19,3,19,0.01
2013-11-29,29,20,11,17,14,9,92,78,57,30.76,30.45,10,1,10,0.01
2013-11-30,29,19,6,24,11,3,93,71,46,30.78,30.38,14,1,14,0.00
2013-12-1,40,34,29,32,30,24,94,86,70,30.38,30.02,13,1,13,0.03
2013-12-2,38,34,30,34,32,29,95,92,83,30.02,29.90,3,0,3,0.01
2013-12-3,39,33,28,36,30,26,97,92,81,30.01,29.91,7,0,7,0.01
2013-12-4,41,32,24,34,28,22,96,86,64,30.16,30.00,7,0,7,0.00
2013-12-5,54,50,37,52,47,34,96,91,85,30.15,29.88,18,3,18,0.05
2013-12-6,52,37,29,51,35,28,97,94,89,30.17,29.88,9,1,9,0.22
2013-12-7,34,28,25,28,25,20,96,86,72,30.48,30.13,13,1,13,0.04
2013-12-8,26,24,20,21,19,17,94,81,71,30.59,30.44,7,0,7,0.00
2013-12-9,38,30,23,36,28,17,96,90,71,30.44,29.91,9,1,9,0.05
2013-12-10,32,26,16,29,22,13,93,85,72,30.01,29.83,12,1,12,0.00
2013-12-11,26,22,18,20,16,10,92,78,65,30.22,30.01,12,2,12,0.00
2013-12-12,19,15,11,16,7,2,90,69,49,30.33,30.04,12,1,12,0.01
2013-12-13,24,18,8,21,10,1,92,73,64,30.41,29.99,14,2,14,0.00
2013-12-14,16,9,5,14,4,-2,93,79,70,30.58,30.04,7,0,7,0.00
2013-12-15,26,23,14,24,20,12,94,90,81,30.04,29.57,14,2,14,0.00
2013-12-16,22,15,2,20,9,-1,93,78,63,30.23,29.75,16,2,16,0.00
2013-12-17,19,9,-4,17,6,-8,92,89,84,30.24,30.01,4,0,9,0.00
2013-12-18,27,21,14,22,18,12,93,88,80,30.10,29.99,7,0,7,0.00
2013-12-19,40,30,24,29,24,19,88,78,54,30.12,29.98,7,1,10,0.10
2013-12-20,47,40,31,38,34,27,93,78,55,30.10,29.91,11,1,11,0.52
2013-12-21,54,48,41,50,44,35,95,86,71,29.93,29.81,20,2,20,0.55
2013-12-22,61,57,49,58,54,46,96,91,83,29.91,29.62,22,3,22,0.03
2013-12-23,49,40,31,46,38,27,97,93,83,30.16,29.89,15,1,15,0.27
2013-12-24,31,24,15,27,18,8,92,79,67,30.32,30.11,17,2,17,0.00
2013-12-25,20,13,6,9,5,1,81,72,61,30.54,30.32,13,1,13,0.00
2013-12-26,27,24,20,23,19,9,93,83,61,30.41,30.12,17,2,17,0.00
2013-12-27,29,26,19,24,20,16,89,79,66,30.30,30.22,10,1,11,0.01
2013-12-28,41,32,22,31,26,19,94,80,60,30.22,30.03,10,1,10,0.00
2013-12-29,45,36,31,35,31,28,97,84,56,30.03,29.55,12,0,12,0.66
2013-12-30,34,22,6,33,17,3,97,83,68,30.20,29.63,15,2,15,0.00
2013-12-31,19,12,4,17,8,1,91,83,67,30.24,30.03,17,1,17,0.00
2014-1-1,20,14,11,12,9,5,89,80,68,30.39,30.21,10,1,10,0.00
2014-1-2,14,4,-5,12,0,-9,89,86,83,30.34,29.90,9,1,9,0.00